Time;durP1;ratioP1;P1;durP2;ratioP2;P2;SDS_P1;SDS_P2;PMS_P1;PMS_P2;Temp;Humidity;BMP_temperature;BMP_pressure;BME280_temperature;BME280_humidity;BME280_pressure;Samples;Min_cycle;Max_cycle;Signal;HPM_P1;HPM_P2
2022/07/30 00:00:15;;;;;;;7.47;4.05;;;;;;;;;;4986137;28;20447;-46
2022/07/30 00:02:41;;;;;;;5.70;3.50;;;;;;;;;;4986387;28;20047;-45
2022/07/30 00:05:06;;;;;;;6.35;4.57;;;;;;;;;;4986739;28;20149;-45
2022/07/30 00:07:31;;;;;;;9.32;3.22;;;;;;;;;;4986946;28;20043;-50
2022/07/30 00:09:57;;;;;;;11.38;3.55;;;;;;;;;;4987014;28;20072;-44
2022/07/30 00:12:22;;;;;;;7.85;4.20;;;;;;;;;;4986685;28;20107;-48
2022/07/30 00:14:48;;;;;;;16.60;4.13;;;;;;;;;;4986360;28;20056;-43
2022/07/30 00:17:13;;;;;;;4.45;3.35;;;;;;;;;;4987033;28;20050;-42
2022/07/30 00:19:38;;;;;;;3.90;2.63;;;;;;;;;;4986389;28;20046;-45
2022/07/30 00:22:04;;;;;;;3.20;2.75;;;;;;;;;;4985347;28;20061;-45
2022/07/30 00:24:29;;;;;;;5.43;2.92;;;;;;;;;;4987187;28;20069;-44
2022/07/30 00:26:55;;;;;;;4.07;2.80;;;;;;;;;;4986724;28;20041;-44
2022/07/30 00:29:20;;;;;;;7.88;4.00;;;;;;;;;;4985811;28;20048;-46
2022/07/30 00:31:45;;;;;;;6.40;4.03;;;;;;;;;;4986229;28;20076;-43
2022/07/30 00:34:14;;;;;;;4.72;3.35;;;;;;;;;;4986132;28;20085;-48
2022/07/30 00:36:39;;;;;;;4.68;3.80;;;;;;;;;;4985254;28;20068;-45
2022/07/30 00:39:05;;;;;;;5.72;3.85;;;;;;;;;;4985800;28;20671;-43
2022/07/30 00:41:30;;;;;;;11.52;4.18;;;;;;;;;;4985888;28;20042;-43
2022/07/30 00:43:55;;;;;;;10.15;4.25;;;;;;;;;;4985669;28;20046;-46
2022/07/30 00:46:21;;;;;;;9.32;2.60;;;;;;;;;;4986270;28;20046;-46
2022/07/30 00:48:46;;;;;;;6.40;4.38;;;;;;;;;;4985058;28;20046;-46
2022/07/30 00:51:11;;;;;;;6.00;3.50;;;;;;;;;;4983418;28;20039;-44
2022/07/30 00:53:37;;;;;;;9.10;2.28;;;;;;;;;;4985252;28;20046;-45
2022/07/30 00:56:02;;;;;;;5.63;4.30;;;;;;;;;;4985619;28;20108;-45
2022/07/30 00:58:28;;;;;;;15.43;3.55;;;;;;;;;;4985487;28;20046;-44
2022/07/30 01:00:53;;;;;;;5.20;3.20;;;;;;;;;;4983473;28;20553;-44
2022/07/30 01:03:18;;;;;;;6.45;3.78;;;;;;;;;;4984923;28;20473;-45
2022/07/30 01:05:44;;;;;;;5.82;3.85;;;;;;;;;;4984908;28;20065;-46
2022/07/30 01:08:09;;;;;;;8.10;3.45;;;;;;;;;;4984878;28;20034;-45
2022/07/30 01:10:34;;;;;;;6.25;3.30;;;;;;;;;;4984482;28;20042;-49
2022/07/30 01:13:00;;;;;;;5.65;3.42;;;;;;;;;;4987611;28;20045;-44
2022/07/30 01:15:26;;;;;;;3.70;3.28;;;;;;;;;;4988206;28;20137;-44
2022/07/30 01:17:54;;;;;;;6.20;3.53;;;;;;;;;;4989458;28;20470;-47
2022/07/30 01:20:22;;;;;;;9.95;4.13;;;;;;;;;;4988394;28;20137;-46
2022/07/30 01:23:06;;;;;;;4.75;3.28;;;;;;;;;;4989837;28;20050;-48
2022/07/30 01:25:31;;;;;;;4.10;3.15;;;;;;;;;;4989173;28;20078;-45
2022/07/30 01:28:03;;;;;;;5.95;3.60;;;;;;;;;;4988531;28;20178;-46
2022/07/30 01:30:30;;;;;;;4.22;3.10;;;;;;;;;;4988260;28;20092;-48
2022/07/30 01:32:56;;;;;;;8.50;3.80;;;;;;;;;;4988200;28;20046;-51
2022/07/30 01:35:23;;;;;;;5.25;3.47;;;;;;;;;;4988150;28;20541;-48
2022/07/30 01:37:50;;;;;;;3.58;2.95;;;;;;;;;;4988824;28;20833;-45
2022/07/30 01:40:16;;;;;;;4.03;3.40;;;;;;;;;;4988665;28;20184;-46
2022/07/30 01:42:42;;;;;;;4.45;2.58;;;;;;;;;;4988078;28;20149;-44
2022/07/30 01:45:08;;;;;;;3.80;3.28;;;;;;;;;;4987396;28;20042;-48
2022/07/30 01:47:34;;;;;;;4.47;3.50;;;;;;;;;;4988647;28;20042;-45
2022/07/30 01:50:00;;;;;;;3.90;2.95;;;;;;;;;;4988242;28;20061;-46
2022/07/30 01:52:29;;;;;;;3.83;2.92;;;;;;;;;;4988675;28;20112;-47
2022/07/30 01:54:56;;;;;;;14.95;4.40;;;;;;;;;;4988506;28;20034;-46
2022/07/30 01:57:22;;;;;;;3.88;3.47;;;;;;;;;;4989047;28;20091;-46
2022/07/30 01:59:49;;;;;;;5.38;3.88;;;;;;;;;;4988319;28;20038;-47
2022/07/30 02:02:14;;;;;;;4.45;2.95;;;;;;;;;;4988185;28;20127;-46
2022/07/30 02:04:40;;;;;;;5.20;3.42;;;;;;;;;;4988472;28;20143;-48
2022/07/30 02:07:09;;;;;;;11.60;4.60;;;;;;;;;;4988192;28;20133;-50
2022/07/30 02:09:36;;;;;;;7.85;3.28;;;;;;;;;;4988367;28;20073;-46
2022/07/30 02:14:49;;;;;;;4.75;2.85;;;;;;;;;;4988338;28;20418;-43
2022/07/30 02:17:22;;;;;;;6.18;3.80;;;;;;;;;;4988547;28;20525;-43
2022/07/30 02:19:50;;;;;;;15.90;4.85;;;;;;;;;;4988109;28;20141;-43
2022/07/30 02:22:16;;;;;;;6.63;3.70;;;;;;;;;;4988462;28;20130;-43
2022/07/30 02:24:42;;;;;;;5.90;5.00;;;;;;;;;;4987588;28;20053;-45
2022/07/30 02:27:13;;;;;;;4.13;3.72;;;;;;;;;;4988764;28;20054;-45
2022/07/30 02:29:39;;;;;;;7.32;3.85;;;;;;;;;;4988151;28;20057;-47
2022/07/30 02:32:07;;;;;;;3.85;2.97;;;;;;;;;;4988366;28;20046;-47
2022/07/30 02:34:33;;;;;;;7.53;3.90;;;;;;;;;;4987981;28;20050;-47
2022/07/30 02:36:59;;;;;;;6.78;4.93;;;;;;;;;;4988215;28;20101;-46
2022/07/30 02:39:25;;;;;;;14.20;5.05;;;;;;;;;;4987801;28;20056;-45
2022/07/30 02:41:52;;;;;;;5.65;3.60;;;;;;;;;;4988194;28;20117;-48
2022/07/30 02:44:19;;;;;;;6.03;5.25;;;;;;;;;;4988005;28;20038;-45
2022/07/30 02:46:45;;;;;;;8.48;5.00;;;;;;;;;;4988123;28;20042;-48
2022/07/30 02:49:11;;;;;;;5.20;4.00;;;;;;;;;;4987823;28;20062;-43
2022/07/30 02:51:36;;;;;;;7.22;4.72;;;;;;;;;;4968690;28;20034;-46
2022/07/30 02:54:02;;;;;;;4.30;3.75;;;;;;;;;;4987770;28;20046;-44
2022/07/30 02:56:29;;;;;;;8.50;5.38;;;;;;;;;;4987706;28;20529;-47
2022/07/30 02:58:55;;;;;;;6.32;5.32;;;;;;;;;;4986941;28;20420;-44
2022/07/30 03:01:21;;;;;;;5.82;3.42;;;;;;;;;;4987861;28;20042;-46
2022/07/30 03:03:47;;;;;;;9.10;5.60;;;;;;;;;;4987464;28;20042;-46
2022/07/30 03:06:13;;;;;;;10.70;5.30;;;;;;;;;;4987010;28;20053;-46
2022/07/30 03:08:39;;;;;;;8.05;4.65;;;;;;;;;;4987588;28;20046;-43
2022/07/30 03:11:05;;;;;;;7.63;3.45;;;;;;;;;;4987443;28;20157;-46
2022/07/30 03:13:30;;;;;;;7.40;4.88;;;;;;;;;;4987168;28;20140;-43
2022/07/30 03:15:57;;;;;;;7.05;5.20;;;;;;;;;;4987929;28;20046;-43
2022/07/30 03:18:23;;;;;;;5.85;4.20;;;;;;;;;;4987384;28;20049;-45
2022/07/30 03:20:50;;;;;;;7.10;4.57;;;;;;;;;;4986839;28;20648;-50
2022/07/30 03:23:16;;;;;;;7.15;4.38;;;;;;;;;;4986955;28;20050;-44
2022/07/30 03:25:44;;;;;;;5.50;4.35;;;;;;;;;;4985558;28;20061;-44
2022/07/30 03:28:10;;;;;;;7.57;4.47;;;;;;;;;;4987120;28;20049;-42
2022/07/30 03:30:36;;;;;;;7.28;5.22;;;;;;;;;;4987038;28;20184;-47
2022/07/30 03:33:01;;;;;;;6.82;4.53;;;;;;;;;;4987671;28;20043;-43
2022/07/30 03:35:27;;;;;;;12.75;3.67;;;;;;;;;;4985807;28;20050;-46
2022/07/30 03:37:53;;;;;;;6.20;3.90;;;;;;;;;;4986905;28;20057;-44
2022/07/30 03:40:19;;;;;;;5.70;3.97;;;;;;;;;;4986227;28;20521;-45
2022/07/30 03:42:44;;;;;;;10.15;3.83;;;;;;;;;;4986057;28;20134;-45
2022/07/30 03:45:12;;;;;;;4.55;4.05;;;;;;;;;;4986805;28;20042;-47
2022/07/30 03:47:38;;;;;;;7.07;4.25;;;;;;;;;;4986583;28;20544;-48
2022/07/30 03:50:04;;;;;;;6.75;4.40;;;;;;;;;;4986746;28;20076;-43
2022/07/30 03:52:33;;;;;;;5.57;3.88;;;;;;;;;;4985476;28;20081;-46
2022/07/30 03:54:58;;;;;;;15.05;4.55;;;;;;;;;;4986752;28;20771;-49
2022/07/30 03:57:24;;;;;;;7.07;3.53;;;;;;;;;;4987279;28;20050;-49
2022/07/30 03:59:50;;;;;;;5.55;3.78;;;;;;;;;;4986894;28;20057;-46
2022/07/30 04:02:15;;;;;;;10.98;9.90;;;;;;;;;;4986683;28;20050;-48
2022/07/30 04:04:41;;;;;;;13.48;6.78;;;;;;;;;;4986620;28;20074;-47
2022/07/30 04:07:07;;;;;;;5.60;4.22;;;;;;;;;;4986078;28;20046;-50
2022/07/30 04:09:32;;;;;;;4.18;3.72;;;;;;;;;;4987001;28;20398;-45
2022/07/30 04:11:58;;;;;;;3.83;3.47;;;;;;;;;;4986657;28;20509;-47
2022/07/30 04:14:23;;;;;;;24.48;4.95;;;;;;;;;;4986668;28;20061;-44
2022/07/30 04:17:00;;;;;;;11.50;4.35;;;;;;;;;;4986725;28;20604;-51
2022/07/30 04:19:33;;;;;;;9.95;5.43;;;;;;;;;;4986587;28;20062;-43
2022/07/30 04:21:59;;;;;;;4.18;3.47;;;;;;;;;;4987230;28;20528;-44
2022/07/30 04:24:26;;;;;;;12.23;4.68;;;;;;;;;;4985649;28;20034;-46
2022/07/30 04:26:51;;;;;;;5.22;3.83;;;;;;;;;;4987804;28;20093;-47
2022/07/30 04:29:17;;;;;;;10.43;4.50;;;;;;;;;;4985850;28;20066;-43
2022/07/30 04:31:42;;;;;;;15.13;5.05;;;;;;;;;;4986592;28;20054;-46
2022/07/30 04:34:11;;;;;;;6.78;3.40;;;;;;;;;;4986214;28;20137;-44
2022/07/30 04:36:37;;;;;;;5.53;3.05;;;;;;;;;;4986228;28;20065;-47
2022/07/30 04:39:03;;;;;;;5.53;4.60;;;;;;;;;;4986136;28;20042;-48
2022/07/30 04:41:28;;;;;;;14.00;3.65;;;;;;;;;;4986180;28;20399;-43
2022/07/30 04:43:53;;;;;;;3.90;3.25;;;;;;;;;;4985149;28;20058;-43
2022/07/30 04:46:19;;;;;;;4.53;3.95;;;;;;;;;;4986971;28;20038;-43
2022/07/30 04:48:44;;;;;;;3.13;2.83;;;;;;;;;;4992150;28;20046;-44
2022/07/30 04:51:16;;;;;;;13.75;5.43;;;;;;;;;;4993121;28;20453;-45
2022/07/30 04:53:42;;;;;;;6.65;3.83;;;;;;;;;;4988317;28;20050;-45
2022/07/30 04:56:08;;;;;;;7.82;4.45;;;;;;;;;;4991457;28;20046;-45
2022/07/30 04:58:33;;;;;;;15.00;5.63;;;;;;;;;;4992475;28;21025;-43
2022/07/30 05:01:00;;;;;;;10.68;4.82;;;;;;;;;;4992574;28;20057;-46
2022/07/30 05:03:26;;;;;;;6.00;4.40;;;;;;;;;;4991766;28;20047;-43
2022/07/30 05:05:52;;;;;;;7.25;4.55;;;;;;;;;;4991576;28;20104;-46
2022/07/30 05:08:17;;;;;;;7.70;5.70;;;;;;;;;;4992328;28;20050;-44
2022/07/30 05:10:43;;;;;;;15.77;4.75;;;;;;;;;;4992509;28;20186;-48
2022/07/30 05:13:13;;;;;;;8.25;5.18;;;;;;;;;;4991247;28;20176;-47
2022/07/30 05:15:38;;;;;;;10.85;5.40;;;;;;;;;;4991760;28;20091;-43
2022/07/30 05:18:03;;;;;;;14.10;5.38;;;;;;;;;;4992250;28;20053;-45
2022/07/30 05:20:29;;;;;;;6.05;4.25;;;;;;;;;;4992054;28;20046;-44
2022/07/30 05:22:54;;;;;;;5.18;3.63;;;;;;;;;;4992422;28;20065;-43
2022/07/30 05:25:19;;;;;;;5.20;4.28;;;;;;;;;;4991872;28;20088;-44
2022/07/30 05:27:45;;;;;;;4.85;3.47;;;;;;;;;;4992108;28;20042;-46
2022/07/30 05:30:10;;;;;;;19.38;4.72;;;;;;;;;;4991377;28;20616;-45
2022/07/30 05:32:36;;;;;;;7.95;2.80;;;;;;;;;;4991997;28;20065;-44
2022/07/30 05:35:01;;;;;;;8.95;3.45;;;;;;;;;;4992064;28;20178;-47
2022/07/30 05:37:26;;;;;;;12.07;3.33;;;;;;;;;;4991179;28;20121;-45
2022/07/30 05:39:52;;;;;;;9.23;4.20;;;;;;;;;;4992132;28;20133;-50
2022/07/30 05:42:18;;;;;;;8.55;4.63;;;;;;;;;;4992173;28;20653;-44
2022/07/30 05:44:43;;;;;;;9.10;5.40;;;;;;;;;;4992078;28;20544;-43
2022/07/30 05:47:08;;;;;;;8.52;4.53;;;;;;;;;;4991666;28;20042;-46
2022/07/30 05:49:34;;;;;;;8.00;4.90;;;;;;;;;;4991938;28;20057;-44
2022/07/30 05:51:59;;;;;;;5.70;4.70;;;;;;;;;;4990923;28;20050;-48
2022/07/30 05:54:24;;;;;;;7.72;5.90;;;;;;;;;;4991741;28;20077;-50
2022/07/30 05:56:49;;;;;;;4.78;4.03;;;;;;;;;;4991555;28;20054;-49
2022/07/30 05:59:15;;;;;;;10.10;4.53;;;;;;;;;;4989139;28;20046;-47
2022/07/30 06:01:40;;;;;;;7.18;4.15;;;;;;;;;;4969265;28;20578;-48
2022/07/30 06:04:05;;;;;;;17.33;5.03;;;;;;;;;;4988312;28;20387;-44
2022/07/30 06:06:31;;;;;;;8.90;5.72;;;;;;;;;;4987020;28;20057;-45
2022/07/30 06:08:56;;;;;;;6.93;4.53;;;;;;;;;;4988038;28;20454;-43
2022/07/30 06:11:21;;;;;;;6.55;5.40;;;;;;;;;;4988076;28;20043;-47
2022/07/30 06:13:47;;;;;;;9.57;5.60;;;;;;;;;;4987514;28;20042;-44
2022/07/30 06:16:12;;;;;;;8.68;6.78;;;;;;;;;;4987730;28;20520;-42
2022/07/30 06:18:37;;;;;;;4.70;4.30;;;;;;;;;;4987198;28;20043;-45
2022/07/30 06:21:03;;;;;;;7.82;4.18;;;;;;;;;;4986355;28;20057;-45
2022/07/30 06:23:28;;;;;;;9.40;4.35;;;;;;;;;;4987611;28;20053;-44
2022/07/30 06:25:53;;;;;;;5.10;4.13;;;;;;;;;;4988032;28;20298;-42
2022/07/30 06:28:19;;;;;;;7.88;4.65;;;;;;;;;;4987461;28;20772;-45
2022/07/30 06:30:47;;;;;;;8.90;4.18;;;;;;;;;;4986959;28;20049;-46
2022/07/30 06:33:13;;;;;;;8.00;5.47;;;;;;;;;;4986601;28;20046;-43
2022/07/30 06:35:38;;;;;;;10.23;6.28;;;;;;;;;;4986698;28;20152;-45
2022/07/30 06:38:04;;;;;;;5.57;4.38;;;;;;;;;;4986260;28;20042;-43
2022/07/30 06:40:29;;;;;;;5.72;3.60;;;;;;;;;;4986945;28;20427;-45
2022/07/30 06:42:55;;;;;;;5.53;4.95;;;;;;;;;;4987215;28;20571;-48
2022/07/30 06:45:20;;;;;;;4.43;4.00;;;;;;;;;;4987107;28;20529;-43
2022/07/30 06:47:45;;;;;;;12.98;3.60;;;;;;;;;;4986541;28;20046;-45
2022/07/30 06:50:11;;;;;;;5.30;3.95;;;;;;;;;;4987165;28;20086;-46
2022/07/30 06:52:36;;;;;;;5.50;3.95;;;;;;;;;;4986764;28;20431;-45
2022/07/30 06:55:02;;;;;;;5.05;2.95;;;;;;;;;;4969096;28;20170;-44
2022/07/30 06:57:27;;;;;;;6.75;3.50;;;;;;;;;;4986320;28;20196;-43
2022/07/30 06:59:53;;;;;;;5.05;4.47;;;;;;;;;;4986956;28;20375;-44
2022/07/30 07:02:18;;;;;;;7.28;5.40;;;;;;;;;;4985930;28;20046;-43
2022/07/30 07:04:43;;;;;;;5.25;3.58;;;;;;;;;;4986067;28;20042;-44
2022/07/30 07:07:09;;;;;;;5.78;3.63;;;;;;;;;;4986590;28;20038;-48
2022/07/30 07:09:34;;;;;;;6.82;5.22;;;;;;;;;;4983717;28;20050;-47
2022/07/30 07:11:59;;;;;;;5.95;3.53;;;;;;;;;;4986051;28;20050;-49
2022/07/30 07:14:25;;;;;;;8.32;4.07;;;;;;;;;;4985774;28;20046;-50
2022/07/30 07:16:53;;;;;;;3.50;2.88;;;;;;;;;;4985838;28;21629;-45
2022/07/30 07:19:19;;;;;;;6.10;3.85;;;;;;;;;;4986147;28;20591;-47
2022/07/30 07:21:45;;;;;;;6.10;4.28;;;;;;;;;;4986469;28;20610;-49
2022/07/30 07:24:10;;;;;;;7.93;4.07;;;;;;;;;;4986873;28;20137;-46
2022/07/30 07:26:35;;;;;;;4.80;3.63;;;;;;;;;;4987681;28;20578;-46
2022/07/30 07:29:00;;;;;;;10.50;6.60;;;;;;;;;;4986290;28;20501;-47
2022/07/30 07:31:26;;;;;;;6.22;3.88;;;;;;;;;;4986670;28;20046;-48
2022/07/30 07:33:53;;;;;;;7.15;5.15;;;;;;;;;;4986968;28;20156;-47
2022/07/30 07:36:22;;;;;;;11.15;4.45;;;;;;;;;;4965714;28;20653;-50
2022/07/30 07:38:47;;;;;;;7.68;4.32;;;;;;;;;;4986757;28;20074;-45
2022/07/30 07:41:13;;;;;;;21.25;4.60;;;;;;;;;;4986897;28;20046;-48
2022/07/30 07:43:39;;;;;;;8.60;4.25;;;;;;;;;;4986423;28;20039;-44
2022/07/30 07:46:04;;;;;;;7.82;5.60;;;;;;;;;;4987019;28;20122;-49
2022/07/30 07:48:30;;;;;;;4.93;3.20;;;;;;;;;;4986719;28;20117;-46
2022/07/30 07:50:55;;;;;;;7.13;3.70;;;;;;;;;;4987043;28;21130;-49
2022/07/30 07:53:20;;;;;;;9.15;5.13;;;;;;;;;;4987137;28;20505;-46
2022/07/30 07:55:46;;;;;;;3.35;2.80;;;;;;;;;;4986979;28;20061;-47
2022/07/30 07:58:12;;;;;;;10.23;5.95;;;;;;;;;;4986731;28;20112;-46
2022/07/30 08:00:38;;;;;;;8.73;3.90;;;;;;;;;;4986663;28;20057;-44
2022/07/30 08:03:03;;;;;;;7.35;3.13;;;;;;;;;;4985928;28;20046;-45
2022/07/30 08:05:28;;;;;;;7.25;2.53;;;;;;;;;;4986284;28;20050;-45
2022/07/30 08:07:54;;;;;;;2.30;1.55;;;;;;;;;;4986595;28;20046;-48
2022/07/30 08:10:19;;;;;;;3.33;2.55;;;;;;;;;;4986333;28;20464;-45
2022/07/30 08:12:44;;;;;;;1.35;1.10;;;;;;;;;;4986416;28;20690;-44
2022/07/30 08:15:09;;;;;;;2.08;1.77;;;;;;;;;;4986601;28;20129;-47
2022/07/30 08:17:42;;;;;;;7.38;3.58;;;;;;;;;;4986586;28;20041;-49
2022/07/30 08:20:07;;;;;;;2.97;2.50;;;;;;;;;;4985822;28;20137;-48
2022/07/30 08:22:33;;;;;;;6.78;3.22;;;;;;;;;;4985232;28;20485;-44
2022/07/30 08:24:59;;;;;;;1.48;1.08;;;;;;;;;;4985944;28;20038;-43
2022/07/30 08:27:25;;;;;;;3.03;2.10;;;;;;;;;;4986049;28;20047;-44
2022/07/30 08:29:50;;;;;;;6.63;2.13;;;;;;;;;;4986346;28;20124;-48
2022/07/30 08:32:15;;;;;;;5.03;2.72;;;;;;;;;;4985927;28;20057;-47
2022/07/30 08:34:41;;;;;;;6.65;3.88;;;;;;;;;;4986137;28;20066;-46
2022/07/30 08:37:06;;;;;;;5.10;1.90;;;;;;;;;;4985777;28;20046;-45
2022/07/30 08:39:31;;;;;;;3.83;2.47;;;;;;;;;;4985863;28;20699;-44
2022/07/30 08:41:57;;;;;;;9.48;3.63;;;;;;;;;;4985605;28;20050;-50
2022/07/30 08:44:23;;;;;;;5.93;3.05;;;;;;;;;;4986263;28;20560;-45
2022/07/30 08:46:50;;;;;;;3.60;2.55;;;;;;;;;;4986048;28;20046;-44
2022/07/30 08:49:16;;;;;;;5.00;3.13;;;;;;;;;;4985788;28;20058;-44
2022/07/30 08:51:42;;;;;;;7.20;3.17;;;;;;;;;;4986121;28;20047;-45
2022/07/30 08:54:08;;;;;;;3.08;2.22;;;;;;;;;;4984416;28;20448;-46
2022/07/30 08:56:33;;;;;;;4.30;3.63;;;;;;;;;;4985678;28;20050;-45
2022/07/30 08:58:59;;;;;;;4.40;2.88;;;;;;;;;;4985584;28;20050;-45
2022/07/30 09:01:24;;;;;;;4.20;2.10;;;;;;;;;;4985454;28;20042;-47
2022/07/30 09:03:49;;;;;;;3.63;1.90;;;;;;;;;;4985834;28;20576;-45
2022/07/30 09:06:15;;;;;;;3.15;2.35;;;;;;;;;;4984975;28;20042;-46
2022/07/30 09:08:40;;;;;;;7.93;2.20;;;;;;;;;;4985482;28;20049;-52
2022/07/30 09:11:06;;;;;;;3.95;2.35;;;;;;;;;;4985023;28;20050;-48
2022/07/30 09:13:36;;;;;;;4.65;2.10;;;;;;;;;;4986235;28;20042;-48
2022/07/30 09:16:03;;;;;;;6.18;2.75;;;;;;;;;;4984956;28;20050;-52
2022/07/30 09:18:33;;;;;;;1.67;1.20;;;;;;;;;;4984268;28;20046;-46
2022/07/30 09:21:13;;;;;;;7.82;2.47;;;;;;;;;;4985460;28;20278;-46
2022/07/30 09:23:41;;;;;;;2.47;1.73;;;;;;;;;;4984361;28;20050;-51
2022/07/30 09:26:06;;;;;;;2.88;2.25;;;;;;;;;;4984677;28;20050;-45
2022/07/30 09:28:32;;;;;;;3.63;2.15;;;;;;;;;;4985583;28;20038;-48
2022/07/30 09:30:58;;;;;;;5.03;2.28;;;;;;;;;;4985092;28;20201;-45
2022/07/30 09:33:36;;;;;;;5.55;1.77;;;;;;;;;;4986926;28;20129;-47
2022/07/30 09:36:02;;;;;;;7.20;3.10;;;;;;;;;;4988495;28;20133;-51
2022/07/30 09:38:27;;;;;;;4.22;1.83;;;;;;;;;;4988849;28;20182;-51
2022/07/30 09:40:53;;;;;;;2.85;2.40;;;;;;;;;;4971007;28;20137;-49
2022/07/30 09:43:19;;;;;;;6.13;4.53;;;;;;;;;;4988964;28;20056;-47
2022/07/30 09:45:51;;;;;;;5.55;2.20;;;;;;;;;;4989280;28;20057;-49
2022/07/30 09:48:24;;;;;;;5.43;1.70;;;;;;;;;;4988342;28;20129;-50
2022/07/30 09:50:50;;;;;;;4.65;1.95;;;;;;;;;;4987887;28;20715;-50
2022/07/30 09:53:15;;;;;;;4.03;2.33;;;;;;;;;;4988520;28;20050;-46
2022/07/30 09:55:41;;;;;;;3.50;1.55;;;;;;;;;;4988502;28;20528;-47
2022/07/30 09:58:06;;;;;;;5.95;3.00;;;;;;;;;;4987570;28;20429;-47
2022/07/30 10:00:35;;;;;;;5.78;2.40;;;;;;;;;;4988655;28;20397;-49
2022/07/30 10:03:01;;;;;;;3.85;1.92;;;;;;;;;;4988975;28;20573;-45
2022/07/30 10:05:27;;;;;;;10.60;2.38;;;;;;;;;;4988703;28;20458;-46
2022/07/30 10:07:56;;;;;;;4.10;3.70;;;;;;;;;;4988863;28;20046;-47
2022/07/30 10:10:23;;;;;;;2.83;1.65;;;;;;;;;;4988709;28;20532;-46
2022/07/30 10:12:50;;;;;;;6.18;1.60;;;;;;;;;;4988024;28;20042;-50
2022/07/30 10:15:17;;;;;;;1.38;1.23;;;;;;;;;;4988271;28;20070;-46
2022/07/30 10:17:43;;;;;;;3.80;2.00;;;;;;;;;;4988361;28;20080;-44
2022/07/30 10:20:09;;;;;;;7.07;2.50;;;;;;;;;;4988399;28;20090;-47
2022/07/30 10:22:34;;;;;;;5.57;1.65;;;;;;;;;;4988499;28;20058;-50
2022/07/30 10:25:01;;;;;;;3.88;2.17;;;;;;;;;;4987881;28;20524;-47
2022/07/30 10:27:26;;;;;;;1.95;1.55;;;;;;;;;;4988190;28;20042;-47
2022/07/30 10:29:52;;;;;;;3.15;1.52;;;;;;;;;;4988078;28;20125;-52
2022/07/30 10:32:17;;;;;;;2.72;1.65;;;;;;;;;;4987427;28;20054;-45
2022/07/30 10:34:43;;;;;;;2.92;2.25;;;;;;;;;;4986910;28;20069;-47
2022/07/30 10:37:09;;;;;;;6.25;2.42;;;;;;;;;;4987783;28;20141;-45
2022/07/30 10:39:38;;;;;;;6.60;3.40;;;;;;;;;;4987150;28;20739;-47
2022/07/30 10:42:09;;;;;;;1.75;1.13;;;;;;;;;;4987765;28;20046;-46
2022/07/30 10:44:53;;;;;;;3.38;1.40;;;;;;;;;;4987290;28;20635;-45
2022/07/30 10:47:19;;;;;;;6.20;3.70;;;;;;;;;;4987454;28;20552;-46
2022/07/30 10:50:07;;;;;;;3.83;1.98;;;;;;;;;;4986684;28;20140;-49
2022/07/30 10:52:42;;;;;;;5.65;2.22;;;;;;;;;;4986563;28;20116;-49
2022/07/30 10:55:11;;;;;;;3.72;2.13;;;;;;;;;;4987136;28;20143;-47
2022/07/30 10:57:55;;;;;;;7.10;4.43;;;;;;;;;;4986165;28;20137;-47
2022/07/30 11:00:20;;;;;;;3.97;3.58;;;;;;;;;;4987524;28;20053;-50
2022/07/30 11:03:06;;;;;;;6.30;3.25;;;;;;;;;;4986031;28;20046;-49
2022/07/30 11:05:31;;;;;;;6.25;3.42;;;;;;;;;;4986667;28;20506;-48
2022/07/30 11:08:16;;;;;;;4.57;2.65;;;;;;;;;;4985711;28;20096;-45
2022/07/30 11:10:42;;;;;;;6.70;1.85;;;;;;;;;;4986993;28;20063;-45
2022/07/30 11:13:07;;;;;;;2.67;1.52;;;;;;;;;;4987122;28;20108;-50
2022/07/30 11:15:52;;;;;;;2.03;1.52;;;;;;;;;;4986011;28;20054;-46
2022/07/30 11:18:17;;;;;;;11.32;1.88;;;;;;;;;;4986894;28;20092;-47
2022/07/30 11:21:02;;;;;;;4.90;1.63;;;;;;;;;;4987207;28;20710;-48
2022/07/30 11:23:27;;;;;;;3.13;1.90;;;;;;;;;;4986741;28;20042;-46
2022/07/30 11:25:53;;;;;;;5.70;3.17;;;;;;;;;;4987648;28;20049;-47
2022/07/30 11:28:38;;;;;;;3.22;1.98;;;;;;;;;;4985159;28;20042;-45
2022/07/30 11:31:23;;;;;;;2.72;2.10;;;;;;;;;;4986535;28;20047;-47
2022/07/30 11:33:49;;;;;;;11.88;3.55;;;;;;;;;;4986019;28;20060;-44
2022/07/30 11:36:14;;;;;;;6.97;2.67;;;;;;;;;;4987837;28;20129;-45
2022/07/30 11:38:51;;;;;;;4.22;2.83;;;;;;;;;;4987323;28;20042;-49
2022/07/30 11:41:17;;;;;;;3.42;2.42;;;;;;;;;;4987154;28;20556;-48
2022/07/30 11:43:42;;;;;;;8.40;1.85;;;;;;;;;;4986136;28;20074;-52
2022/07/30 11:46:10;;;;;;;4.43;1.60;;;;;;;;;;4985964;28;20054;-46
2022/07/30 11:48:55;;;;;;;4.53;1.40;;;;;;;;;;4987487;28;20577;-45
2022/07/30 11:51:20;;;;;;;4.00;2.45;;;;;;;;;;4983840;28;20049;-50
2022/07/30 11:53:58;;;;;;;2.72;1.40;;;;;;;;;;4986639;28;20046;-47
2022/07/30 11:56:23;;;;;;;1.85;1.65;;;;;;;;;;4985992;28;20046;-44
2022/07/30 11:58:49;;;;;;;4.18;1.83;;;;;;;;;;4987123;28;20054;-44
2022/07/30 12:01:15;;;;;;;1.10;1.00;;;;;;;;;;4986760;28;20162;-50
2022/07/30 12:03:44;;;;;;;3.60;1.88;;;;;;;;;;4986731;28;20127;-47
2022/07/30 12:06:20;;;;;;;1.98;1.50;;;;;;;;;;4986715;28;20133;-48
2022/07/30 12:08:46;;;;;;;4.07;2.25;;;;;;;;;;4986469;28;20129;-48
2022/07/30 12:11:12;;;;;;;4.18;2.30;;;;;;;;;;4986655;28;20046;-46
2022/07/30 12:13:39;;;;;;;3.63;2.83;;;;;;;;;;4986644;28;20452;-47
2022/07/30 12:16:08;;;;;;;13.77;4.95;;;;;;;;;;4983268;28;20525;-48
2022/07/30 12:18:34;;;;;;;1.55;1.17;;;;;;;;;;4985584;28;20042;-49
2022/07/30 12:21:01;;;;;;;7.80;2.92;;;;;;;;;;4986663;28;20551;-44
2022/07/30 12:23:27;;;;;;;5.50;2.45;;;;;;;;;;4986835;28;20035;-47
2022/07/30 12:25:52;;;;;;;5.65;2.50;;;;;;;;;;4983896;28;20050;-47
2022/07/30 12:28:28;;;;;;;7.97;3.13;;;;;;;;;;4985536;28;20047;-44
2022/07/30 12:30:54;;;;;;;2.95;2.22;;;;;;;;;;4986083;28;20053;-44
2022/07/30 12:33:21;;;;;;;10.05;4.93;;;;;;;;;;4986168;28;20413;-46
2022/07/30 12:35:56;;;;;;;6.20;4.03;;;;;;;;;;4985850;28;20112;-47
2022/07/30 12:38:23;;;;;;;4.00;2.17;;;;;;;;;;4986183;28;20057;-45
2022/07/30 12:40:57;;;;;;;3.28;2.72;;;;;;;;;;4984345;28;20048;-45
2022/07/30 12:43:41;;;;;;;6.63;2.33;;;;;;;;;;4985429;28;20046;-44
2022/07/30 12:46:06;;;;;;;7.63;2.22;;;;;;;;;;4985772;28;20042;-46
2022/07/30 12:48:31;;;;;;;7.63;3.40;;;;;;;;;;4985293;28;20038;-47
2022/07/30 12:51:07;;;;;;;7.63;2.67;;;;;;;;;;4984936;28;20508;-44
2022/07/30 12:53:32;;;;;;;3.92;1.65;;;;;;;;;;4983524;28;20060;-43
2022/07/30 12:56:17;;;;;;;2.50;1.55;;;;;;;;;;4984247;28;20042;-46
2022/07/30 12:58:42;;;;;;;2.50;1.25;;;;;;;;;;4984380;28;20414;-47
2022/07/30 13:01:08;;;;;;;4.18;2.22;;;;;;;;;;4985113;28;20047;-45
2022/07/30 13:03:39;;;;;;;5.20;2.63;;;;;;;;;;4985418;28;20034;-46
2022/07/30 13:06:13;;;;;;;2.35;1.35;;;;;;;;;;4983279;28;20034;-47
2022/07/30 13:08:46;;;;;;;3.33;1.52;;;;;;;;;;4987177;28;20125;-48
2022/07/30 13:11:12;;;;;;;3.38;2.15;;;;;;;;;;4988487;28;20521;-50
2022/07/30 13:13:37;;;;;;;13.45;3.53;;;;;;;;;;4987799;28;20054;-48
2022/07/30 13:16:03;;;;;;;4.75;2.75;;;;;;;;;;4988502;28;20184;-51
2022/07/30 13:18:29;;;;;;;2.17;1.20;;;;;;;;;;4988325;28;20042;-50
2022/07/30 13:20:55;;;;;;;3.08;2.22;;;;;;;;;;4988482;28;20043;-42
2022/07/30 13:23:21;;;;;;;3.83;2.10;;;;;;;;;;4988950;28;20116;-49
2022/07/30 13:25:46;;;;;;;2.97;1.75;;;;;;;;;;4986946;28;20053;-48
2022/07/30 13:28:11;;;;;;;6.20;2.70;;;;;;;;;;4986985;28;20046;-50
2022/07/30 13:30:37;;;;;;;9.75;4.72;;;;;;;;;;4986615;28;20059;-45
2022/07/30 13:33:02;;;;;;;2.25;1.67;;;;;;;;;;4989393;28;20121;-46
2022/07/30 13:35:27;;;;;;;11.80;2.65;;;;;;;;;;4989510;28;20057;-47
2022/07/30 13:37:53;;;;;;;2.33;1.90;;;;;;;;;;4987779;28;20606;-50
2022/07/30 13:40:18;;;;;;;1.27;1.08;;;;;;;;;;4989785;28;20077;-48
2022/07/30 13:42:43;;;;;;;3.60;2.00;;;;;;;;;;4989759;28;20663;-50
2022/07/30 13:45:09;;;;;;;3.35;2.33;;;;;;;;;;4991137;28;20405;-44
2022/07/30 13:47:34;;;;;;;4.38;2.33;;;;;;;;;;4989075;28;20148;-48
2022/07/30 13:49:59;;;;;;;2.42;1.75;;;;;;;;;;4988585;28;20193;-45
2022/07/30 13:52:25;;;;;;;2.03;1.38;;;;;;;;;;4989712;28;20121;-48
2022/07/30 13:54:52;;;;;;;4.22;2.05;;;;;;;;;;4988250;28;20140;-45
2022/07/30 13:57:17;;;;;;;5.72;1.40;;;;;;;;;;4988215;28;20061;-48
2022/07/30 13:59:43;;;;;;;2.30;1.50;;;;;;;;;;4988609;28;20046;-43
2022/07/30 14:02:08;;;;;;;2.65;1.38;;;;;;;;;;4988409;28;20045;-45
2022/07/30 14:04:33;;;;;;;3.10;2.45;;;;;;;;;;4988737;28;20045;-45
2022/07/30 14:06:59;;;;;;;5.40;2.40;;;;;;;;;;4988889;28;20421;-47
2022/07/30 14:09:24;;;;;;;2.35;1.60;;;;;;;;;;4988882;28;20080;-46
2022/07/30 14:11:50;;;;;;;5.88;1.40;;;;;;;;;;4988044;28;20093;-45
2022/07/30 14:14:15;;;;;;;2.70;1.75;;;;;;;;;;4988105;28;20046;-46
2022/07/30 14:16:40;;;;;;;3.58;2.38;;;;;;;;;;4988345;28;20042;-44
2022/07/30 14:19:05;;;;;;;1.48;1.20;;;;;;;;;;4987456;28;20070;-47
2022/07/30 14:21:31;;;;;;;3.70;1.30;;;;;;;;;;4987443;28;20133;-46
2022/07/30 14:23:56;;;;;;;6.32;1.85;;;;;;;;;;4988173;28;20076;-51
2022/07/30 14:26:22;;;;;;;1.90;1.42;;;;;;;;;;4988269;28;20061;-48
2022/07/30 14:28:47;;;;;;;2.42;1.50;;;;;;;;;;4988093;28;20042;-46
2022/07/30 14:31:12;;;;;;;2.97;2.30;;;;;;;;;;4988579;28;20125;-47
2022/07/30 14:33:38;;;;;;;6.82;2.40;;;;;;;;;;4987749;28;20443;-44
2022/07/30 14:36:03;;;;;;;4.82;2.38;;;;;;;;;;4987692;28;20646;-45
2022/07/30 14:38:29;;;;;;;5.18;1.30;;;;;;;;;;4987066;28;20038;-44
2022/07/30 14:40:55;;;;;;;5.35;1.98;;;;;;;;;;4987529;28;20053;-49